Terminal Aerodrome Forecast
Issued by NWS

Home | Current Version | Previous Version | Text Only | Print | Product List | Glossary On
Versions: 1 2 3 4 5 6 7 8 9 10 11 12 13 14 15 16 17
048
FTUS43 KDTX 241558 AAB
TAFMBS
TAF AMD
KMBS 241558Z 2416/2512 21011KT P6SM BKN008 OVC020
      TEMPO 2418/2420 3SM TSRA OVC035CB
     FM242000 22013G20KT P6SM SCT050 BKN100
     FM250200 23007KT P6SM -SHRA OVC040
     FM250700 27008KT 5SM BR SCT020 BKN150=

USA.gov is the U.S. government's official web portal to all federal, state and local government web resources and services.